Ari, Indiana
Current Conditions -  °F | °C
As of 7:15 PM on Tuesday 25 Nov 2014 (Local Time) from KGWB Reporting Station
Overcast Overcast  
Wind Chill: -5°   Ceiling: 1900
Heat Index: -2°   Visibility: 10mi
Dew Point: -7°   Wind: 5mph
Humidity: 69%   Direction: 240°WSW
Pressure: 30.18"   Gusts: NA
Location:  41.225°N, 85.325°W
Report Text: KGWB 260015Z AUTO 24004KT 10SM OVC019 M02/M07 A3018 RMK AO2
Loading
Personal Weather Stations






























Interactive Weather Map New forecast layout! Learn more

10-Day Weather Forecast

Advertisements
Track Severe Weather on mobile